sensor_id;sensor_type;location;lat;lon;timestamp;P1;durP1;ratioP1;P2;durP2;ratioP2
9330;SDS011;4704;50.470;12.072;2023-05-07T00:01:42;2.50;;;2.40;;
9330;SDS011;4704;50.470;12.072;2023-05-07T00:04:10;2.88;;;2.67;;
9330;SDS011;4704;50.470;12.072;2023-05-07T00:06:38;2.95;;;2.70;;
9330;SDS011;4704;50.470;12.072;2023-05-07T00:09:06;2.40;;;2.30;;
9330;SDS011;4704;50.470;12.072;2023-05-07T00:11:33;2.53;;;2.42;;
9330;SDS011;4704;50.470;12.072;2023-05-07T00:14:01;2.42;;;2.33;;
9330;SDS011;4704;50.470;12.072;2023-05-07T00:16:29;2.70;;;2.50;;
9330;SDS011;4704;50.470;12.072;2023-05-07T00:18:58;2.55;;;2.45;;
9330;SDS011;4704;50.470;12.072;2023-05-07T00:21:25;2.60;;;2.50;;
9330;SDS011;4704;50.470;12.072;2023-05-07T00:23:53;2.88;;;2.67;;
9330;SDS011;4704;50.470;12.072;2023-05-07T00:26:20;2.80;;;2.60;;
9330;SDS011;4704;50.470;12.072;2023-05-07T00:28:48;2.90;;;2.70;;
9330;SDS011;4704;50.470;12.072;2023-05-07T00:31:16;2.78;;;2.58;;
9330;SDS011;4704;50.470;12.072;2023-05-07T00:33:43;2.45;;;2.35;;
9330;SDS011;4704;50.470;12.072;2023-05-07T00:36:12;3.03;;;2.83;;
9330;SDS011;4704;50.470;12.072;2023-05-07T00:38:39;2.70;;;2.50;;
9330;SDS011;4704;50.470;12.072;2023-05-07T00:41:07;3.00;;;2.80;;
9330;SDS011;4704;50.470;12.072;2023-05-07T00:43:35;3.00;;;2.80;;
9330;SDS011;4704;50.470;12.072;2023-05-07T00:46:02;2.75;;;2.55;;
9330;SDS011;4704;50.470;12.072;2023-05-07T00:48:30;2.92;;;2.72;;
9330;SDS011;4704;50.470;12.072;2023-05-07T00:50:58;2.90;;;2.70;;
9330;SDS011;4704;50.470;12.072;2023-05-07T00:53:27;2.92;;;2.72;;
9330;SDS011;4704;50.470;12.072;2023-05-07T00:55:55;2.90;;;2.70;;
9330;SDS011;4704;50.470;12.072;2023-05-07T00:58:23;3.10;;;2.90;;
9330;SDS011;4704;50.470;12.072;2023-05-07T01:00:51;2.95;;;2.75;;
9330;SDS011;4704;50.470;12.072;2023-05-07T01:03:18;3.00;;;2.80;;
9330;SDS011;4704;50.470;12.072;2023-05-07T01:05:46;3.20;;;3.00;;
9330;SDS011;4704;50.470;12.072;2023-05-07T01:08:15;3.00;;;2.80;;
9330;SDS011;4704;50.470;12.072;2023-05-07T01:10:45;3.10;;;2.90;;
9330;SDS011;4704;50.470;12.072;2023-05-07T01:13:13;3.20;;;3.00;;
9330;SDS011;4704;50.470;12.072;2023-05-07T01:15:41;3.15;;;2.95;;
9330;SDS011;4704;50.470;12.072;2023-05-07T01:18:08;3.50;;;3.20;;
9330;SDS011;4704;50.470;12.072;2023-05-07T01:20:36;3.17;;;2.97;;
9330;SDS011;4704;50.470;12.072;2023-05-07T01:23:05;3.20;;;3.00;;
9330;SDS011;4704;50.470;12.072;2023-05-07T01:25:34;3.20;;;3.00;;
9330;SDS011;4704;50.470;12.072;2023-05-07T01:28:01;3.00;;;2.80;;
9330;SDS011;4704;50.470;12.072;2023-05-07T01:30:29;3.30;;;3.10;;
9330;SDS011;4704;50.470;12.072;2023-05-07T01:32:58;3.20;;;3.00;;
9330;SDS011;4704;50.470;12.072;2023-05-07T01:35:28;3.15;;;2.95;;
9330;SDS011;4704;50.470;12.072;2023-05-07T01:37:56;3.35;;;3.15;;
9330;SDS011;4704;50.470;12.072;2023-05-07T01:40:25;3.55;;;3.30;;
9330;SDS011;4704;50.470;12.072;2023-05-07T01:42:54;3.50;;;3.20;;
9330;SDS011;4704;50.470;12.072;2023-05-07T01:45:21;3.30;;;3.10;;
9330;SDS011;4704;50.470;12.072;2023-05-07T01:47:49;3.42;;;3.22;;
9330;SDS011;4704;50.470;12.072;2023-05-07T01:50:18;3.45;;;3.25;;
9330;SDS011;4704;50.470;12.072;2023-05-07T01:52:46;3.40;;;3.20;;
9330;SDS011;4704;50.470;12.072;2023-05-07T01:55:14;3.17;;;2.97;;
9330;SDS011;4704;50.470;12.072;2023-05-07T01:57:43;3.40;;;3.20;;
9330;SDS011;4704;50.470;12.072;2023-05-07T02:00:11;3.60;;;3.40;;
9330;SDS011;4704;50.470;12.072;2023-05-07T02:02:39;3.55;;;3.35;;
9330;SDS011;4704;50.470;12.072;2023-05-07T02:05:06;3.40;;;3.20;;
9330;SDS011;4704;50.470;12.072;2023-05-07T02:07:34;3.58;;;3.38;;
9330;SDS011;4704;50.470;12.072;2023-05-07T02:10:01;3.65;;;3.45;;
9330;SDS011;4704;50.470;12.072;2023-05-07T02:12:30;3.50;;;3.30;;
9330;SDS011;4704;50.470;12.072;2023-05-07T02:14:59;3.90;;;3.60;;
9330;SDS011;4704;50.470;12.072;2023-05-07T02:17:27;3.40;;;3.10;;
9330;SDS011;4704;50.470;12.072;2023-05-07T02:19:56;3.70;;;3.40;;
9330;SDS011;4704;50.470;12.072;2023-05-07T02:22:24;3.75;;;3.45;;
9330;SDS011;4704;50.470;12.072;2023-05-07T02:24:52;3.35;;;3.15;;
9330;SDS011;4704;50.470;12.072;2023-05-07T02:27:19;3.58;;;3.33;;
9330;SDS011;4704;50.470;12.072;2023-05-07T02:29:47;3.72;;;3.53;;
9330;SDS011;4704;50.470;12.072;2023-05-07T02:32:16;3.90;;;3.60;;
9330;SDS011;4704;50.470;12.072;2023-05-07T02:34:44;3.60;;;3.38;;
9330;SDS011;4704;50.470;12.072;2023-05-07T02:37:12;3.38;;;3.17;;
9330;SDS011;4704;50.470;12.072;2023-05-07T02:39:39;3.60;;;3.40;;
9330;SDS011;4704;50.470;12.072;2023-05-07T02:42:07;3.15;;;2.95;;
9330;SDS011;4704;50.470;12.072;2023-05-07T02:44:35;3.67;;;3.47;;
9330;SDS011;4704;50.470;12.072;2023-05-07T02:47:03;3.75;;;3.53;;
9330;SDS011;4704;50.470;12.072;2023-05-07T02:49:35;3.88;;;3.58;;
9330;SDS011;4704;50.470;12.072;2023-05-07T02:52:02;3.72;;;3.42;;
9330;SDS011;4704;50.470;12.072;2023-05-07T02:54:30;4.00;;;3.70;;
9330;SDS011;4704;50.470;12.072;2023-05-07T02:56:57;3.60;;;3.40;;
9330;SDS011;4704;50.470;12.072;2023-05-07T02:59:26;4.13;;;3.83;;
9330;SDS011;4704;50.470;12.072;2023-05-07T03:01:54;3.58;;;3.38;;
9330;SDS011;4704;50.470;12.072;2023-05-07T03:04:21;3.85;;;3.55;;
9330;SDS011;4704;50.470;12.072;2023-05-07T03:06:50;3.85;;;3.55;;
9330;SDS011;4704;50.470;12.072;2023-05-07T03:09:18;3.60;;;3.40;;
9330;SDS011;4704;50.470;12.072;2023-05-07T03:11:46;3.85;;;3.55;;
9330;SDS011;4704;50.470;12.072;2023-05-07T03:14:14;3.58;;;3.38;;
9330;SDS011;4704;50.470;12.072;2023-05-07T03:16:42;3.95;;;3.65;;
9330;SDS011;4704;50.470;12.072;2023-05-07T03:19:09;3.75;;;3.45;;
9330;SDS011;4704;50.470;12.072;2023-05-07T03:21:37;3.92;;;3.63;;
9330;SDS011;4704;50.470;12.072;2023-05-07T03:24:07;3.75;;;3.45;;
9330;SDS011;4704;50.470;12.072;2023-05-07T03:26:35;3.60;;;3.40;;
9330;SDS011;4704;50.470;12.072;2023-05-07T03:29:02;3.75;;;3.55;;
9330;SDS011;4704;50.470;12.072;2023-05-07T03:31:31;3.70;;;3.50;;
9330;SDS011;4704;50.470;12.072;2023-05-07T03:33:59;3.72;;;3.50;;
9330;SDS011;4704;50.470;12.072;2023-05-07T03:36:26;3.60;;;3.40;;
9330;SDS011;4704;50.470;12.072;2023-05-07T03:38:54;4.00;;;3.70;;
9330;SDS011;4704;50.470;12.072;2023-05-07T03:41:23;4.10;;;3.80;;
9330;SDS011;4704;50.470;12.072;2023-05-07T03:43:51;3.80;;;3.60;;
9330;SDS011;4704;50.470;12.072;2023-05-07T03:46:19;4.05;;;3.75;;
9330;SDS011;4704;50.470;12.072;2023-05-07T03:48:46;3.95;;;3.65;;
9330;SDS011;4704;50.470;12.072;2023-05-07T03:51:13;3.80;;;3.50;;
9330;SDS011;4704;50.470;12.072;2023-05-07T03:53:41;3.90;;;3.60;;
9330;SDS011;4704;50.470;12.072;2023-05-07T03:56:08;3.47;;;3.28;;
9330;SDS011;4704;50.470;12.072;2023-05-07T03:58:37;3.72;;;3.53;;
9330;SDS011;4704;50.470;12.072;2023-05-07T04:01:05;3.88;;;3.67;;
9330;SDS011;4704;50.470;12.072;2023-05-07T04:03:32;4.00;;;3.70;;
9330;SDS011;4704;50.470;12.072;2023-05-07T04:05:59;3.88;;;3.58;;
9330;SDS011;4704;50.470;12.072;2023-05-07T04:08:28;3.88;;;3.58;;
9330;SDS011;4704;50.470;12.072;2023-05-07T04:10:56;3.97;;;3.67;;
9330;SDS011;4704;50.470;12.072;2023-05-07T04:13:23;3.90;;;3.60;;
9330;SDS011;4704;50.470;12.072;2023-05-07T04:15:52;4.10;;;3.80;;
9330;SDS011;4704;50.470;12.072;2023-05-07T04:18:19;3.90;;;3.60;;
9330;SDS011;4704;50.470;12.072;2023-05-07T04:20:47;4.07;;;3.78;;
9330;SDS011;4704;50.470;12.072;2023-05-07T04:23:15;4.05;;;3.75;;
9330;SDS011;4704;50.470;12.072;2023-05-07T04:25:43;4.00;;;3.70;;
9330;SDS011;4704;50.470;12.072;2023-05-07T04:28:10;3.88;;;3.58;;
9330;SDS011;4704;50.470;12.072;2023-05-07T04:30:37;4.20;;;3.90;;
9330;SDS011;4704;50.470;12.072;2023-05-07T04:33:07;3.70;;;3.50;;
9330;SDS011;4704;50.470;12.072;2023-05-07T04:35:36;4.40;;;4.10;;
9330;SDS011;4704;50.470;12.072;2023-05-07T04:38:03;3.70;;;3.50;;
9330;SDS011;4704;50.470;12.072;2023-05-07T04:40:30;4.10;;;3.80;;
9330;SDS011;4704;50.470;12.072;2023-05-07T04:42:57;4.22;;;3.92;;
9330;SDS011;4704;50.470;12.072;2023-05-07T04:45:25;4.50;;;4.20;;
9330;SDS011;4704;50.470;12.072;2023-05-07T04:47:52;4.25;;;3.95;;
9330;SDS011;4704;50.470;12.072;2023-05-07T04:50:21;4.45;;;4.15;;
9330;SDS011;4704;50.470;12.072;2023-05-07T04:52:49;4.63;;;4.32;;
9330;SDS011;4704;50.470;12.072;2023-05-07T04:55:17;4.30;;;3.97;;
9330;SDS011;4704;50.470;12.072;2023-05-07T04:57:44;4.10;;;3.80;;
9330;SDS011;4704;50.470;12.072;2023-05-07T05:00:12;4.40;;;4.10;;
9330;SDS011;4704;50.470;12.072;2023-05-07T05:02:40;4.70;;;4.32;;
9330;SDS011;4704;50.470;12.072;2023-05-07T05:05:08;4.55;;;4.25;;
9330;SDS011;4704;50.470;12.072;2023-05-07T05:07:37;4.10;;;3.80;;
9330;SDS011;4704;50.470;12.072;2023-05-07T05:10:05;4.10;;;3.80;;
9330;SDS011;4704;50.470;12.072;2023-05-07T05:12:32;4.10;;;3.80;;
9330;SDS011;4704;50.470;12.072;2023-05-07T05:14:59;4.28;;;3.97;;
9330;SDS011;4704;50.470;12.072;2023-05-07T05:17:27;4.30;;;4.00;;
9330;SDS011;4704;50.470;12.072;2023-05-07T05:19:54;4.40;;;4.10;;
9330;SDS011;4704;50.470;12.072;2023-05-07T05:22:22;4.43;;;4.13;;
9330;SDS011;4704;50.470;12.072;2023-05-07T05:24:52;4.50;;;4.20;;
9330;SDS011;4704;50.470;12.072;2023-05-07T05:27:19;4.20;;;3.90;;
9330;SDS011;4704;50.470;12.072;2023-05-07T05:29:47;4.18;;;3.88;;
9330;SDS011;4704;50.470;12.072;2023-05-07T05:32:14;4.53;;;4.15;;
9330;SDS011;4704;50.470;12.072;2023-05-07T05:34:41;4.50;;;4.20;;
9330;SDS011;4704;50.470;12.072;2023-05-07T05:37:09;4.20;;;3.90;;
9330;SDS011;4704;50.470;12.072;2023-05-07T05:39:36;4.70;;;4.40;;
9330;SDS011;4704;50.470;12.072;2023-05-07T05:42:05;4.55;;;4.18;;
9330;SDS011;4704;50.470;12.072;2023-05-07T05:44:33;4.40;;;4.10;;
9330;SDS011;4704;50.470;12.072;2023-05-07T05:47:00;4.22;;;3.92;;
9330;SDS011;4704;50.470;12.072;2023-05-07T05:49:27;4.50;;;4.20;;
9330;SDS011;4704;50.470;12.072;2023-05-07T05:51:54;4.65;;;4.35;;
9330;SDS011;4704;50.470;12.072;2023-05-07T05:54:22;4.45;;;4.15;;
9330;SDS011;4704;50.470;12.072;2023-05-07T05:56:49;4.15;;;3.85;;
9330;SDS011;4704;50.470;12.072;2023-05-07T05:59:18;3.90;;;3.60;;
9330;SDS011;4704;50.470;12.072;2023-05-07T06:01:46;4.60;;;4.30;;
9330;SDS011;4704;50.470;12.072;2023-05-07T06:04:13;4.15;;;3.85;;
9330;SDS011;4704;50.470;12.072;2023-05-07T06:06:40;4.50;;;4.20;;
9330;SDS011;4704;50.470;12.072;2023-05-07T06:09:08;4.43;;;4.13;;
9330;SDS011;4704;50.470;12.072;2023-05-07T06:11:35;4.70;;;4.40;;
9330;SDS011;4704;50.470;12.072;2023-05-07T06:14:03;4.20;;;3.90;;
9330;SDS011;4704;50.470;12.072;2023-05-07T06:16:32;4.40;;;4.10;;
9330;SDS011;4704;50.470;12.072;2023-05-07T06:18:59;4.43;;;4.13;;
9330;SDS011;4704;50.470;12.072;2023-05-07T06:21:26;4.63;;;4.28;;
9330;SDS011;4704;50.470;12.072;2023-05-07T06:23:54;4.47;;;4.13;;
9330;SDS011;4704;50.470;12.072;2023-05-07T06:26:21;4.35;;;4.05;;
9330;SDS011;4704;50.470;12.072;2023-05-07T06:28:49;4.07;;;3.78;;
9330;SDS011;4704;50.470;12.072;2023-05-07T06:31:17;4.00;;;3.70;;
9330;SDS011;4704;50.470;12.072;2023-05-07T06:33:47;4.20;;;3.90;;
9330;SDS011;4704;50.470;12.072;2023-05-07T06:36:15;4.22;;;3.92;;
9330;SDS011;4704;50.470;12.072;2023-05-07T06:38:42;4.30;;;4.00;;
9330;SDS011;4704;50.470;12.072;2023-05-07T06:41:10;4.43;;;4.13;;
9330;SDS011;4704;50.470;12.072;2023-05-07T06:43:37;4.13;;;3.83;;
9330;SDS011;4704;50.470;12.072;2023-05-07T06:46:04;4.30;;;4.00;;
9330;SDS011;4704;50.470;12.072;2023-05-07T06:48:32;4.25;;;3.95;;
9330;SDS011;4704;50.470;12.072;2023-05-07T06:51:01;4.10;;;3.80;;
9330;SDS011;4704;50.470;12.072;2023-05-07T06:53:28;4.13;;;3.40;;
9330;SDS011;4704;50.470;12.072;2023-05-07T06:55:55;3.83;;;3.53;;
9330;SDS011;4704;50.470;12.072;2023-05-07T06:58:23;3.78;;;3.47;;
9330;SDS011;4704;50.470;12.072;2023-05-07T07:00:50;4.03;;;3.72;;
9330;SDS011;4704;50.470;12.072;2023-05-07T07:03:18;3.95;;;3.65;;
9330;SDS011;4704;50.470;12.072;2023-05-07T07:05:46;4.10;;;3.80;;
9330;SDS011;4704;50.470;12.072;2023-05-07T07:08:15;3.38;;;3.17;;
9330;SDS011;4704;50.470;12.072;2023-05-07T07:10:43;4.28;;;3.97;;
9330;SDS011;4704;50.470;12.072;2023-05-07T07:13:10;3.95;;;3.65;;
9330;SDS011;4704;50.470;12.072;2023-05-07T07:15:37;3.88;;;3.58;;
9330;SDS011;4704;50.470;12.072;2023-05-07T07:18:05;3.67;;;3.38;;
9330;SDS011;4704;50.470;12.072;2023-05-07T07:20:32;3.95;;;3.63;;
9330;SDS011;4704;50.470;12.072;2023-05-07T07:23:00;3.90;;;3.60;;
9330;SDS011;4704;50.470;12.072;2023-05-07T07:25:29;3.67;;;3.38;;
9330;SDS011;4704;50.470;12.072;2023-05-07T07:27:56;3.90;;;3.60;;
9330;SDS011;4704;50.470;12.072;2023-05-07T07:30:24;3.88;;;3.63;;
9330;SDS011;4704;50.470;12.072;2023-05-07T07:32:51;3.97;;;3.67;;
9330;SDS011;4704;50.470;12.072;2023-05-07T07:35:18;3.90;;;3.60;;
9330;SDS011;4704;50.470;12.072;2023-05-07T07:37:46;3.55;;;3.35;;
9330;SDS011;4704;50.470;12.072;2023-05-07T07:40:15;3.63;;;3.35;;
9330;SDS011;4704;50.470;12.072;2023-05-07T07:42:43;3.90;;;3.60;;
9330;SDS011;4704;50.470;12.072;2023-05-07T07:45:11;3.78;;;3.47;;
9330;SDS011;4704;50.470;12.072;2023-05-07T07:47:39;3.45;;;3.25;;
9330;SDS011;4704;50.470;12.072;2023-05-07T07:50:06;4.00;;;3.70;;
9330;SDS011;4704;50.470;12.072;2023-05-07T07:52:34;4.10;;;3.80;;
9330;SDS011;4704;50.470;12.072;2023-05-07T07:55:01;3.63;;;3.42;;
9330;SDS011;4704;50.470;12.072;2023-05-07T07:57:29;4.15;;;3.85;;
9330;SDS011;4704;50.470;12.072;2023-05-07T07:59:58;3.45;;;3.25;;
9330;SDS011;4704;50.470;12.072;2023-05-07T08:02:26;3.88;;;3.58;;
9330;SDS011;4704;50.470;12.072;2023-05-07T08:04:53;3.78;;;3.47;;
9330;SDS011;4704;50.470;12.072;2023-05-07T08:07:20;3.50;;;3.30;;
9330;SDS011;4704;50.470;12.072;2023-05-07T08:09:47;3.95;;;3.65;;
9330;SDS011;4704;50.470;12.072;2023-05-07T08:12:15;3.78;;;3.55;;
9330;SDS011;4704;50.470;12.072;2023-05-07T08:14:43;4.07;;;3.78;;
9330;SDS011;4704;50.470;12.072;2023-05-07T08:17:11;4.10;;;3.80;;
9330;SDS011;4704;50.470;12.072;2023-05-07T08:19:41;3.97;;;3.67;;
9330;SDS011;4704;50.470;12.072;2023-05-07T08:22:08;3.72;;;3.50;;
9330;SDS011;4704;50.470;12.072;2023-05-07T08:24:37;3.85;;;3.55;;
9330;SDS011;4704;50.470;12.072;2023-05-07T08:27:04;3.88;;;3.58;;
9330;SDS011;4704;50.470;12.072;2023-05-07T08:29:32;3.90;;;3.60;;
9330;SDS011;4704;50.470;12.072;2023-05-07T08:31:59;3.90;;;3.60;;
9330;SDS011;4704;50.470;12.072;2023-05-07T08:34:28;3.88;;;3.58;;
9330;SDS011;4704;50.470;12.072;2023-05-07T08:36:55;3.63;;;3.33;;
9330;SDS011;4704;50.470;12.072;2023-05-07T08:39:22;4.05;;;3.75;;
9330;SDS011;4704;50.470;12.072;2023-05-07T08:41:50;3.40;;;3.20;;
9330;SDS011;4704;50.470;12.072;2023-05-07T08:44:20;4.30;;;4.00;;
9330;SDS011;4704;50.470;12.072;2023-05-07T08:46:49;3.53;;;3.28;;
9330;SDS011;4704;50.470;12.072;2023-05-07T08:49:19;3.70;;;3.40;;
9330;SDS011;4704;50.470;12.072;2023-05-07T08:51:48;3.53;;;3.22;;
9330;SDS011;4704;50.470;12.072;2023-05-07T08:54:16;3.60;;;3.40;;
9330;SDS011;4704;50.470;12.072;2023-05-07T08:56:44;3.35;;;3.15;;
9330;SDS011;4704;50.470;12.072;2023-05-07T08:59:12;3.40;;;3.15;;
9330;SDS011;4704;50.470;12.072;2023-05-07T09:01:39;3.72;;;3.42;;
9330;SDS011;4704;50.470;12.072;2023-05-07T09:04:07;3.90;;;3.60;;
9330;SDS011;4704;50.470;12.072;2023-05-07T09:06:34;3.88;;;3.58;;
9330;SDS011;4704;50.470;12.072;2023-05-07T09:09:04;4.22;;;3.83;;
9330;SDS011;4704;50.470;12.072;2023-05-07T09:11:31;3.88;;;3.58;;
9330;SDS011;4704;50.470;12.072;2023-05-07T09:13:59;3.80;;;3.50;;
9330;SDS011;4704;50.470;12.072;2023-05-07T09:16:28;3.60;;;3.40;;
9330;SDS011;4704;50.470;12.072;2023-05-07T09:18:57;4.15;;;3.85;;
9330;SDS011;4704;50.470;12.072;2023-05-07T09:21:26;4.25;;;3.80;;
9330;SDS011;4704;50.470;12.072;2023-05-07T09:23:53;4.20;;;3.90;;
9330;SDS011;4704;50.470;12.072;2023-05-07T09:26:23;3.75;;;3.45;;
9330;SDS011;4704;50.470;12.072;2023-05-07T09:28:50;4.53;;;4.13;;
9330;SDS011;4704;50.470;12.072;2023-05-07T09:31:18;4.05;;;3.75;;
9330;SDS011;4704;50.470;12.072;2023-05-07T09:33:48;4.10;;;3.80;;
9330;SDS011;4704;50.470;12.072;2023-05-07T09:36:16;4.85;;;4.38;;
9330;SDS011;4704;50.470;12.072;2023-05-07T09:38:43;4.13;;;3.83;;
9330;SDS011;4704;50.470;12.072;2023-05-07T09:41:11;4.57;;;4.18;;
9330;SDS011;4704;50.470;12.072;2023-05-07T09:43:40;4.03;;;3.72;;
9330;SDS011;4704;50.470;12.072;2023-05-07T09:46:08;4.50;;;4.10;;
9330;SDS011;4704;50.470;12.072;2023-05-07T09:48:36;4.72;;;4.32;;
9330;SDS011;4704;50.470;12.072;2023-05-07T09:51:06;4.40;;;4.10;;
9330;SDS011;4704;50.470;12.072;2023-05-07T09:53:36;4.53;;;4.20;;
9330;SDS011;4704;50.470;12.072;2023-05-07T09:56:04;4.75;;;4.45;;
9330;SDS011;4704;50.470;12.072;2023-05-07T09:58:32;5.10;;;4.60;;
9330;SDS011;4704;50.470;12.072;2023-05-07T10:01:02;5.10;;;4.70;;
9330;SDS011;4704;50.470;12.072;2023-05-07T10:03:29;5.10;;;4.70;;
9330;SDS011;4704;50.470;12.072;2023-05-07T10:05:58;4.72;;;4.18;;
9330;SDS011;4704;50.470;12.072;2023-05-07T10:08:25;4.90;;;4.50;;
9330;SDS011;4704;50.470;12.072;2023-05-07T10:10:53;4.70;;;4.30;;
9330;SDS011;4704;50.470;12.072;2023-05-07T10:13:20;4.50;;;4.10;;
9330;SDS011;4704;50.470;12.072;2023-05-07T10:15:48;5.07;;;4.68;;
9330;SDS011;4704;50.470;12.072;2023-05-07T10:18:17;5.40;;;4.53;;
9330;SDS011;4704;50.470;12.072;2023-05-07T10:20:47;5.15;;;3.92;;
9330;SDS011;4704;50.470;12.072;2023-05-07T10:23:16;4.93;;;4.43;;
9330;SDS011;4704;50.470;12.072;2023-05-07T10:25:46;5.25;;;4.50;;
9330;SDS011;4704;50.470;12.072;2023-05-07T10:28:14;5.03;;;4.30;;
9330;SDS011;4704;50.470;12.072;2023-05-07T10:30:46;6.07;;;4.80;;
9330;SDS011;4704;50.470;12.072;2023-05-07T10:33:15;4.68;;;4.13;;
9330;SDS011;4704;50.470;12.072;2023-05-07T10:35:45;4.53;;;4.13;;
9330;SDS011;4704;50.470;12.072;2023-05-07T10:38:13;5.10;;;4.53;;
9330;SDS011;4704;50.470;12.072;2023-05-07T10:40:40;4.95;;;4.45;;
9330;SDS011;4704;50.470;12.072;2023-05-07T10:43:08;5.50;;;4.60;;
9330;SDS011;4704;50.470;12.072;2023-05-07T10:45:35;4.85;;;4.45;;
9330;SDS011;4704;50.470;12.072;2023-05-07T10:48:06;4.97;;;4.47;;
9330;SDS011;4704;50.470;12.072;2023-05-07T10:50:34;4.80;;;4.40;;
9330;SDS011;4704;50.470;12.072;2023-05-07T10:53:21;5.10;;;4.57;;
9330;SDS011;4704;50.470;12.072;2023-05-07T10:58:39;4.53;;;4.10;;
9330;SDS011;4704;50.470;12.072;2023-05-07T11:01:07;4.45;;;4.15;;
9330;SDS011;4704;50.470;12.072;2023-05-07T11:03:36;4.43;;;4.07;;
9330;SDS011;4704;50.470;12.072;2023-05-07T11:06:23;4.22;;;3.92;;
9330;SDS011;4704;50.470;12.072;2023-05-07T11:08:53;4.63;;;4.22;;
9330;SDS011;4704;50.470;12.072;2023-05-07T11:14:03;4.70;;;4.30;;
9330;SDS011;4704;50.470;12.072;2023-05-07T11:16:31;4.80;;;4.40;;
9330;SDS011;4704;50.470;12.072;2023-05-07T11:19:01;4.60;;;4.20;;
9330;SDS011;4704;50.470;12.072;2023-05-07T11:21:32;4.53;;;4.22;;
9330;SDS011;4704;50.470;12.072;2023-05-07T11:24:02;4.60;;;4.20;;
9330;SDS011;4704;50.470;12.072;2023-05-07T11:26:30;4.63;;;4.22;;
9330;SDS011;4704;50.470;12.072;2023-05-07T11:28:58;4.25;;;3.95;;
9330;SDS011;4704;50.470;12.072;2023-05-07T11:31:27;4.72;;;4.10;;
9330;SDS011;4704;50.470;12.072;2023-05-07T11:33:55;4.10;;;3.80;;
9330;SDS011;4704;50.470;12.072;2023-05-07T11:36:23;4.00;;;3.70;;
9330;SDS011;4704;50.470;12.072;2023-05-07T11:38:51;3.90;;;3.60;;
9330;SDS011;4704;50.470;12.072;2023-05-07T11:41:20;4.10;;;3.70;;
9330;SDS011;4704;50.470;12.072;2023-05-07T11:43:54;4.20;;;3.90;;
9330;SDS011;4704;50.470;12.072;2023-05-07T11:46:22;4.18;;;3.80;;
9330;SDS011;4704;50.470;12.072;2023-05-07T11:48:49;4.05;;;3.65;;
9330;SDS011;4704;50.470;12.072;2023-05-07T11:51:20;4.20;;;3.90;;
9330;SDS011;4704;50.470;12.072;2023-05-07T11:53:48;4.28;;;3.97;;
9330;SDS011;4704;50.470;12.072;2023-05-07T11:56:15;3.90;;;3.60;;
9330;SDS011;4704;50.470;12.072;2023-05-07T11:58:45;4.18;;;3.88;;
9330;SDS011;4704;50.470;12.072;2023-05-07T12:01:13;4.07;;;3.78;;
9330;SDS011;4704;50.470;12.072;2023-05-07T12:03:42;4.00;;;3.70;;
9330;SDS011;4704;50.470;12.072;2023-05-07T12:06:10;4.00;;;3.70;;
9330;SDS011;4704;50.470;12.072;2023-05-07T12:08:38;3.70;;;3.40;;
9330;SDS011;4704;50.470;12.072;2023-05-07T12:11:09;3.92;;;3.63;;
9330;SDS011;4704;50.470;12.072;2023-05-07T12:13:37;4.05;;;3.75;;
9330;SDS011;4704;50.470;12.072;2023-05-07T12:16:06;4.20;;;3.80;;
9330;SDS011;4704;50.470;12.072;2023-05-07T12:18:35;3.85;;;3.55;;
9330;SDS011;4704;50.470;12.072;2023-05-07T12:21:03;3.58;;;3.30;;
9330;SDS011;4704;50.470;12.072;2023-05-07T12:23:31;4.00;;;3.70;;
9330;SDS011;4704;50.470;12.072;2023-05-07T12:25:59;3.75;;;3.45;;
9330;SDS011;4704;50.470;12.072;2023-05-07T12:28:26;4.10;;;3.80;;
9330;SDS011;4704;50.470;12.072;2023-05-07T12:30:53;3.85;;;3.55;;
9330;SDS011;4704;50.470;12.072;2023-05-07T12:33:25;3.78;;;3.47;;
9330;SDS011;4704;50.470;12.072;2023-05-07T12:35:53;3.72;;;3.42;;
9330;SDS011;4704;50.470;12.072;2023-05-07T12:38:21;4.18;;;3.78;;
9330;SDS011;4704;50.470;12.072;2023-05-07T12:40:49;3.38;;;3.17;;
9330;SDS011;4704;50.470;12.072;2023-05-07T12:43:17;3.38;;;3.17;;
9330;SDS011;4704;50.470;12.072;2023-05-07T12:45:46;3.80;;;3.50;;
9330;SDS011;4704;50.470;12.072;2023-05-07T12:48:14;3.70;;;3.40;;
9330;SDS011;4704;50.470;12.072;2023-05-07T12:50:43;3.80;;;3.50;;
9330;SDS011;4704;50.470;12.072;2023-05-07T12:53:10;3.60;;;3.30;;
9330;SDS011;4704;50.470;12.072;2023-05-07T12:55:41;3.72;;;3.42;;
9330;SDS011;4704;50.470;12.072;2023-05-07T12:58:14;3.70;;;3.40;;
9330;SDS011;4704;50.470;12.072;2023-05-07T13:00:42;3.58;;;3.28;;
9330;SDS011;4704;50.470;12.072;2023-05-07T13:03:10;3.85;;;3.55;;
9330;SDS011;4704;50.470;12.072;2023-05-07T13:05:38;3.33;;;3.10;;
9330;SDS011;4704;50.470;12.072;2023-05-07T13:08:07;3.28;;;3.08;;
9330;SDS011;4704;50.470;12.072;2023-05-07T13:10:34;3.38;;;3.08;;
9330;SDS011;4704;50.470;12.072;2023-05-07T13:13:02;3.60;;;3.30;;
9330;SDS011;4704;50.470;12.072;2023-05-07T13:15:30;3.58;;;3.28;;
9330;SDS011;4704;50.470;12.072;2023-05-07T13:17:57;3.55;;;3.25;;
9330;SDS011;4704;50.470;12.072;2023-05-07T13:20:25;3.35;;;3.15;;
9330;SDS011;4704;50.470;12.072;2023-05-07T13:22:52;3.40;;;3.20;;
9330;SDS011;4704;50.470;12.072;2023-05-07T13:25:21;3.53;;;3.33;;
9330;SDS011;4704;50.470;12.072;2023-05-07T13:27:49;3.20;;;3.00;;
9330;SDS011;4704;50.470;12.072;2023-05-07T13:30:16;3.15;;;2.95;;
9330;SDS011;4704;50.470;12.072;2023-05-07T13:32:43;3.67;;;3.40;;
9330;SDS011;4704;50.470;12.072;2023-05-07T13:35:12;3.22;;;3.03;;
9330;SDS011;4704;50.470;12.072;2023-05-07T13:37:40;3.00;;;2.80;;
9330;SDS011;4704;50.470;12.072;2023-05-07T13:40:08;3.40;;;3.10;;
9330;SDS011;4704;50.470;12.072;2023-05-07T13:42:37;3.10;;;2.80;;
9330;SDS011;4704;50.470;12.072;2023-05-07T13:45:04;3.05;;;2.85;;
9330;SDS011;4704;50.470;12.072;2023-05-07T13:47:32;3.10;;;2.80;;
9330;SDS011;4704;50.470;12.072;2023-05-07T13:49:59;2.97;;;2.78;;
9330;SDS011;4704;50.470;12.072;2023-05-07T13:52:27;3.20;;;3.00;;
9330;SDS011;4704;50.470;12.072;2023-05-07T13:54:54;3.42;;;3.13;;
9330;SDS011;4704;50.470;12.072;2023-05-07T13:57:23;3.20;;;2.92;;
9330;SDS011;4704;50.470;12.072;2023-05-07T13:59:52;3.03;;;2.83;;
9330;SDS011;4704;50.470;12.072;2023-05-07T14:02:19;3.30;;;3.10;;
9330;SDS011;4704;50.470;12.072;2023-05-07T14:04:47;2.95;;;2.75;;
9330;SDS011;4704;50.470;12.072;2023-05-07T14:07:14;3.03;;;2.83;;
9330;SDS011;4704;50.470;12.072;2023-05-07T14:09:43;2.97;;;2.78;;
9330;SDS011;4704;50.470;12.072;2023-05-07T14:12:10;3.20;;;3.00;;
9330;SDS011;4704;50.470;12.072;2023-05-07T14:14:37;2.97;;;2.78;;
9330;SDS011;4704;50.470;12.072;2023-05-07T14:17:06;3.20;;;3.00;;
9330;SDS011;4704;50.470;12.072;2023-05-07T14:19:34;2.95;;;2.75;;
9330;SDS011;4704;50.470;12.072;2023-05-07T14:22:02;3.10;;;2.90;;
9330;SDS011;4704;50.470;12.072;2023-05-07T14:24:29;3.00;;;2.80;;
9330;SDS011;4704;50.470;12.072;2023-05-07T14:26:56;3.08;;;2.88;;
9330;SDS011;4704;50.470;12.072;2023-05-07T14:29:23;2.90;;;2.70;;
9330;SDS011;4704;50.470;12.072;2023-05-07T14:31:51;2.90;;;2.70;;
9330;SDS011;4704;50.470;12.072;2023-05-07T14:34:19;2.80;;;2.60;;
9330;SDS011;4704;50.470;12.072;2023-05-07T14:36:47;3.30;;;3.10;;
9330;SDS011;4704;50.470;12.072;2023-05-07T14:39:14;2.90;;;2.70;;
9330;SDS011;4704;50.470;12.072;2023-05-07T14:41:42;2.97;;;2.72;;
9330;SDS011;4704;50.470;12.072;2023-05-07T14:44:09;2.92;;;2.72;;
9330;SDS011;4704;50.470;12.072;2023-05-07T14:46:36;3.15;;;2.95;;
9330;SDS011;4704;50.470;12.072;2023-05-07T14:49:04;2.78;;;2.58;;
9330;SDS011;4704;50.470;12.072;2023-05-07T14:51:32;3.20;;;3.00;;
9330;SDS011;4704;50.470;12.072;2023-05-07T14:54:00;3.03;;;2.83;;
9330;SDS011;4704;50.470;12.072;2023-05-07T14:56:28;3.05;;;2.85;;
9330;SDS011;4704;50.470;12.072;2023-05-07T14:58:55;3.03;;;2.83;;
9330;SDS011;4704;50.470;12.072;2023-05-07T15:01:23;2.40;;;2.30;;
9330;SDS011;4704;50.470;12.072;2023-05-07T15:03:50;2.97;;;2.78;;
9330;SDS011;4704;50.470;12.072;2023-05-07T15:06:18;3.20;;;3.00;;
9330;SDS011;4704;50.470;12.072;2023-05-07T15:08:46;2.63;;;2.42;;
9330;SDS011;4704;50.470;12.072;2023-05-07T15:11:14;2.67;;;2.47;;